Terminal Aerodrome Forecast
Issued by NWS

Home | Current Version | Previous Version | Text Only | Print | Product List | Glossary Off
Versions: 1 2 3 4 5 6 7 8 9 10 11 12 13 14

564
FTUS43 KMPX 250520
TAFRWF
TAF
KRWF 250520Z 2506/2606 28004KT P6SM SKC
     FM251500 26006KT P6SM SCT050 SCT200
     FM260000 20004KT P6SM SCT200=

USA.gov is the U.S. government's official web portal to all federal, state and local government web resources and services.